Time;durP1;ratioP1;P1;durP2;ratioP2;P2;SDS_P1;SDS_P2;PMS_P1;PMS_P2;Temp;Humidity;BMP_temperature;BMP_pressure;BME280_temperature;BME280_humidity;BME280_pressure;Samples;Min_cycle;Max_cycle;Signal;HPM_P1;HPM_P2
2022/11/21 00:01:32;;;;;;;20.30;6.03;;;;;;;16.37;94.92;98875.28;5087531;28;20080;-27
2022/11/21 00:03:57;;;;;;;26.40;6.15;;;;;;;16.31;94.30;98850.34;5087267;28;20031;-28
2022/11/21 00:06:23;;;;;;;20.40;5.18;;;;;;;16.39;94.14;98849.69;5086652;28;20024;-28
2022/11/21 00:08:49;;;;;;;20.35;6.07;;;;;;;16.46;93.44;98834.00;5087068;28;20089;-30
2022/11/21 00:11:15;;;;;;;15.55;5.05;;;;;;;16.44;93.94;98855.00;5087424;28;20024;-29
2022/11/21 00:13:40;;;;;;;19.42;5.00;;;;;;;16.56;93.65;98846.53;5087227;28;20492;-31
2022/11/21 00:16:08;;;;;;;21.02;6.18;;;;;;;16.27;94.73;98825.09;5086024;28;20039;-30
2022/11/21 00:18:34;;;;;;;19.73;5.40;;;;;;;16.39;93.60;98809.34;5086870;28;20082;-28
2022/11/21 00:21:07;;;;;;;18.65;5.63;;;;;;;16.49;93.88;98829.94;5087094;28;20629;-28
2022/11/21 00:23:34;;;;;;;18.15;4.68;;;;;;;16.38;94.47;98844.59;5087175;28;20029;-28
2022/11/21 00:26:03;;;;;;;15.77;4.78;;;;;;;16.36;94.06;98841.38;5086575;28;20107;-31
2022/11/21 00:28:28;;;;;;;14.63;4.75;;;;;;;16.37;93.53;98816.91;5087019;28;20032;-29
2022/11/21 00:30:54;;;;;;;16.63;4.15;;;;;;;16.30;93.37;98813.75;5068774;28;20453;-29
2022/11/21 00:33:19;;;;;;;17.42;5.05;;;;;;;16.35;93.77;98823.66;5086962;28;20031;-31
2022/11/21 00:35:44;;;;;;;14.45;3.95;;;;;;;16.31;93.63;98809.97;5068204;28;20094;-30
2022/11/21 00:38:10;;;;;;;12.82;2.75;;;;;;;16.18;93.60;98791.81;5087058;28;20111;-27
2022/11/21 00:40:35;;;;;;;18.70;4.22;;;;;;;16.14;93.77;98801.56;5068485;28;20031;-27
2022/11/21 00:43:01;;;;;;;11.57;3.00;;;;;;;16.11;94.47;98813.69;5068693;28;20035;-28
2022/11/21 00:45:26;;;;;;;14.95;3.70;;;;;;;16.04;94.61;98794.44;5086710;28;20066;-28
2022/11/21 00:47:51;;;;;;;12.25;2.78;;;;;;;15.93;95.01;98779.47;5086432;28;20040;-31
2022/11/21 00:50:17;;;;;;;11.25;2.90;;;;;;;15.84;95.11;98768.56;5086330;28;20048;-30
2022/11/21 00:52:42;;;;;;;11.93;2.40;;;;;;;15.78;94.89;98761.63;5068577;28;20024;-28
2022/11/21 00:55:08;;;;;;;9.85;3.03;;;;;;;15.99;94.90;98792.56;5086844;28;20114;-26
2022/11/21 00:57:34;;;;;;;14.95;4.47;;;;;;;16.01;94.52;98779.63;5087042;28;20040;-27
2022/11/21 00:59:59;;;;;;;11.32;2.83;;;;;;;16.03;94.83;98780.16;5086690;28;20074;-28
2022/11/21 01:02:24;;;;;;;15.60;3.13;;;;;;;15.93;95.84;98787.53;5086505;28;20072;-31
2022/11/21 01:04:50;;;;;;;13.80;2.55;;;;;;;15.75;97.23;98763.00;5086816;28;20480;-28
2022/11/21 01:07:15;;;;;;;12.63;2.72;;;;;;;15.64;98.79;98769.53;5086557;28;20030;-30
2022/11/21 01:09:41;;;;;;;8.65;2.80;;;;;;;15.71;99.58;98783.41;5086622;28;20070;-33
2022/11/21 01:12:06;;;;;;;13.32;3.58;;;;;;;15.77;98.96;98781.50;5086666;28;20050;-28
2022/11/21 01:14:31;;;;;;;12.65;2.58;;;;;;;15.94;98.27;98795.31;5068350;28;20031;-28
2022/11/21 01:16:57;;;;;;;12.70;2.80;;;;;;;16.10;97.32;98800.53;5087750;28;20036;-32
2022/11/21 01:19:22;;;;;;;16.08;3.35;;;;;;;15.95;98.93;98793.44;5071909;28;20032;-31
2022/11/21 01:21:48;;;;;;;16.13;3.65;;;;;;;16.28;97.52;98802.47;5090453;28;20105;-30
2022/11/21 01:24:13;;;;;;;16.80;4.40;;;;;;;16.19;97.91;98796.13;5071984;28;20024;-31
2022/11/21 01:26:39;;;;;;;16.27;3.50;;;;;;;16.16;97.69;98796.69;5090584;28;20114;-27
2022/11/21 01:29:05;;;;;;;11.55;3.05;;;;;;;16.35;97.63;98835.22;5071802;28;20028;-34
2022/11/21 01:31:32;;;;;;;15.90;4.07;;;;;;;16.32;97.62;98810.78;5090110;28;20053;-28
2022/11/21 01:33:58;;;;;;;18.98;3.88;;;;;;;16.29;98.90;98844.44;5089954;28;20150;-28
2022/11/21 01:36:26;;;;;;;16.70;3.97;;;;;;;16.22;100.00;98850.16;5089640;28;20032;-34
2022/11/21 01:38:57;;;;;;;15.73;3.42;;;;;;;16.23;100.00;98856.34;5090021;28;20020;-28
2022/11/21 01:41:35;;;;;;;11.57;2.80;;;;;;;16.39;100.00;98895.44;5071542;28;20125;-28
2022/11/21 01:44:02;;;;;;;15.30;3.72;;;;;;;16.04;100.00;98883.97;5089644;28;20107;-32
2022/11/21 01:46:28;;;;;;;6.72;2.25;;;;;;;15.82;93.37;98862.91;5071866;28;20048;-31
2022/11/21 01:48:59;;;;;;;6.85;2.78;;;;;;;15.57;95.12;98877.34;5071252;28;20069;-30
2022/11/21 01:51:38;;;;;;;8.63;3.25;;;;;;;15.33;98.25;98863.03;5071229;28;20083;-32
2022/11/21 01:54:36;;;;;;;13.25;3.20;;;;;;;15.22;100.00;98857.72;5089533;28;20027;-33
2022/11/21 01:57:31;;;;;;;10.48;3.85;;;;;;;15.23;100.00;98834.34;5054667;28;20040;-29
2022/11/21 02:00:01;;;;;;;10.07;3.28;;;;;;;15.14;100.00;98842.19;5070948;28;20122;-29
2022/11/21 02:02:31;;;;;;;10.25;3.58;;;;;;;15.12;100.00;98835.47;5089542;28;20032;-30
2022/11/21 02:04:58;;;;;;;9.32;3.45;;;;;;;15.02;100.00;98798.78;5089354;28;20115;-27
2022/11/21 02:07:27;;;;;;;12.85;3.65;;;;;;;15.16;100.00;98821.25;5070915;28;20621;-36
2022/11/21 02:09:58;;;;;;;;;;;;;;;15.24;100.00;98836.75;5089777;28;20032;-32
2022/11/21 02:12:30;;;;;;;8.50;2.80;;;;;;;15.33;97.42;98836.16;5070861;28;20699;-32
2022/11/21 02:14:57;;;;;;;5.28;2.38;;;;;;;15.14;95.67;98818.03;5070899;28;20107;-28
2022/11/21 02:17:24;;;;;;;6.35;2.10;;;;;;;15.03;95.61;98800.38;5089185;28;20028;-30
2022/11/21 02:19:54;;;;;;;6.63;2.65;;;;;;;15.10;96.78;98800.88;5089071;28;20032;-28
2022/11/21 02:22:42;;;;;;;6.75;2.33;;;;;;;15.10;95.80;98797.38;5089295;28;20507;-29
2022/11/21 02:25:22;;;;;;;6.78;2.35;;;;;;;15.19;93.22;98799.19;5089140;28;20034;-28
2022/11/21 02:27:51;;;;;;;4.78;1.92;;;;;;;15.20;94.16;98794.59;5088901;28;20871;-27
2022/11/21 02:30:17;;;;;;;8.43;2.55;;;;;;;15.06;96.62;98789.09;5069718;28;20036;-28
2022/11/21 02:32:47;;;;;;;9.52;2.92;;;;;;;14.98;99.33;98782.44;5088923;28;20116;-28
2022/11/21 02:35:16;;;;;;;7.45;2.60;;;;;;;14.89;96.91;98769.88;5089460;28;20117;-28
2022/11/21 02:37:44;;;;;;;8.70;2.90;;;;;;;14.97;97.11;98780.81;5088508;28;20407;-33
2022/11/21 02:40:15;;;;;;;5.80;2.40;;;;;;;14.92;96.15;98777.38;5088689;28;20028;-32
2022/11/21 02:42:48;;;;;;;3.95;0.88;;;;;;;14.80;91.63;98757.03;5088772;28;20039;-31
2022/11/21 02:45:20;;;;;;;2.33;0.68;;;;;;;14.65;92.00;98749.09;5070369;28;20031;-28
2022/11/21 02:47:49;;;;;;;3.67;0.80;;;;;;;14.59;92.12;98758.25;5088482;28;20032;-28
2022/11/21 02:50:18;;;;;;;1.30;0.73;;;;;;;14.48;92.91;98744.06;5088568;28;20048;-31
2022/11/21 02:52:43;;;;;;;3.10;0.93;;;;;;;14.51;91.51;98723.94;5088766;28;20028;-31
2022/11/21 02:55:10;;;;;;;2.28;0.70;;;;;;;14.39;93.08;98753.78;5088431;28;20039;-28
2022/11/21 02:57:37;;;;;;;4.18;0.85;;;;;;;14.26;93.85;98755.16;5088272;28;20023;-28
2022/11/21 03:00:03;;;;;;;5.93;1.48;;;;;;;14.34;94.68;98751.91;5088354;28;20035;-31
2022/11/21 03:02:28;;;;;;;4.45;1.40;;;;;;;14.56;92.76;98769.53;5088737;28;20084;-31
2022/11/21 03:04:54;;;;;;;5.63;1.88;;;;;;;14.47;95.17;98771.97;5070492;28;20031;-28
2022/11/21 03:07:19;;;;;;;6.00;1.88;;;;;;;14.53;96.61;98762.81;5088469;28;20020;-27
2022/11/21 03:09:45;;;;;;;7.60;2.00;;;;;;;14.67;95.34;98757.69;5088507;28;20036;-28
2022/11/21 03:12:10;;;;;;;7.13;2.22;;;;;;;14.65;95.62;98775.94;5087944;28;20396;-30
2022/11/21 03:14:36;;;;;;;4.45;2.00;;;;;;;14.60;95.40;98782.09;5088512;28;20039;-28
2022/11/21 03:17:02;;;;;;;4.78;2.17;;;;;;;14.68;95.99;98777.25;5088055;28;20043;-27
2022/11/21 03:19:28;;;;;;;9.27;2.42;;;;;;;14.66;95.15;98753.38;5088196;28;20093;-30
2022/11/21 03:21:54;;;;;;;6.28;1.92;;;;;;;14.54;95.39;98726.06;5052895;28;20028;-27
2022/11/21 03:24:19;;;;;;;6.68;2.10;;;;;;;14.69;94.11;98744.78;5069642;28;20407;-28
2022/11/21 03:26:44;;;;;;;8.05;1.80;;;;;;;14.72;94.64;98763.00;5087811;28;20032;-28
2022/11/21 03:29:10;;;;;;;7.88;2.08;;;;;;;14.78;93.92;98751.16;5087959;28;20032;-29
2022/11/21 03:31:35;;;;;;;7.47;2.47;;;;;;;14.70;94.76;98759.00;5069614;28;20086;-32
2022/11/21 03:34:01;;;;;;;8.00;1.95;;;;;;;14.68;95.52;98731.63;5087515;28;20031;-29
2022/11/21 03:36:27;;;;;;;9.32;2.47;;;;;;;14.61;95.07;98734.63;5087870;28;20082;-28
2022/11/21 03:38:57;;;;;;;7.63;2.25;;;;;;;14.43;95.61;98719.94;5087716;28;20027;-30
2022/11/21 03:41:29;;;;;;;5.00;2.05;;;;;;;14.49;95.40;98742.19;5087577;28;20027;-27
2022/11/21 03:44:06;;;;;;;6.97;2.00;;;;;;;14.27;96.46;98727.28;5087403;28;20442;-28
2022/11/21 03:46:33;;;;;;;8.05;2.40;;;;;;;14.53;94.36;98725.25;5087607;28;20030;-31
2022/11/21 03:48:59;;;;;;;7.85;2.63;;;;;;;14.53;95.06;98732.50;5087505;28;20116;-28
2022/11/21 03:51:25;;;;;;;8.50;2.45;;;;;;;14.26;95.84;98757.84;5087700;28;20435;-32
2022/11/21 03:53:51;;;;;;;5.43;2.05;;;;;;;14.23;96.27;98750.34;5087078;28;20124;-27
2022/11/21 03:56:16;;;;;;;6.50;2.15;;;;;;;14.35;95.64;98748.16;5087495;28;20513;-31
2022/11/21 03:58:42;;;;;;;7.05;2.55;;;;;;;14.09;96.24;98743.97;5087560;28;20024;-29
2022/11/21 04:01:08;;;;;;;8.35;2.42;;;;;;;13.94;97.54;98736.81;5087330;28;20039;-28
2022/11/21 04:03:33;;;;;;;6.75;2.08;;;;;;;13.86;97.31;98725.56;5069070;28;20027;-29
2022/11/21 04:05:59;;;;;;;6.82;2.03;;;;;;;13.82;97.09;98718.34;5086965;28;20020;-29
2022/11/21 04:08:24;;;;;;;6.85;2.53;;;;;;;13.56;98.40;98709.56;5087130;28;20020;-31
2022/11/21 04:10:51;;;;;;;6.95;2.15;;;;;;;13.52;99.40;98724.56;5087254;28;20442;-27
2022/11/21 04:13:17;;;;;;;6.28;1.95;;;;;;;13.73;98.96;98731.50;5068860;28;20056;-29
2022/11/21 04:15:44;;;;;;;5.85;1.42;;;;;;;13.88;96.76;98709.22;5086840;28;20107;-30
2022/11/21 04:18:10;;;;;;;7.00;1.92;;;;;;;13.49;99.00;98711.75;5087388;28;20036;-28
2022/11/21 04:20:35;;;;;;;5.75;1.80;;;;;;;13.64;97.92;98723.19;5087120;28;20035;-28
2022/11/21 04:23:01;;;;;;;5.78;1.80;;;;;;;13.92;96.08;98729.03;5086498;28;20039;-29
2022/11/21 04:25:26;;;;;;;7.00;2.22;;;;;;;13.82;95.93;98718.34;5087249;28;20040;-30
2022/11/21 04:27:55;;;;;;;5.88;1.70;;;;;;;13.60;96.19;98708.75;5086581;28;20035;-32
2022/11/21 04:30:21;;;;;;;8.50;1.48;;;;;;;13.57;95.77;98722.69;5087250;28;20121;-27
2022/11/21 04:32:48;;;;;;;6.20;1.55;;;;;;;13.83;94.01;98726.13;5087288;28;20507;-33
2022/11/21 04:35:14;;;;;;;8.35;1.95;;;;;;;13.93;93.31;98714.53;5087053;28;20077;-31
2022/11/21 04:37:39;;;;;;;9.35;1.92;;;;;;;14.00;93.06;98709.69;5086820;28;20048;-33
2022/11/21 04:40:05;;;;;;;7.18;2.13;;;;;;;14.07;91.66;98702.16;5086864;28;20400;-30
2022/11/21 04:42:30;;;;;;;3.83;1.45;;;;;;;14.09;92.25;98704.56;5068893;28;20484;-27
2022/11/21 04:44:56;;;;;;;5.53;1.70;;;;;;;14.25;90.17;98694.56;5068500;28;20035;-27
2022/11/21 04:47:21;;;;;;;7.00;1.70;;;;;;;14.34;87.46;98692.09;5086732;28;20028;-28
2022/11/21 04:49:46;;;;;;;6.68;1.60;;;;;;;14.46;88.05;98681.84;5086599;28;20056;-30
2022/11/21 04:52:12;;;;;;;3.72;1.70;;;;;;;14.42;87.59;98684.25;5087762;28;20118;-30
2022/11/21 04:54:37;;;;;;;7.32;2.30;;;;;;;14.15;90.74;98667.81;5090790;28;20443;-33
2022/11/21 04:57:03;;;;;;;10.90;2.88;;;;;;;14.22;91.43;98685.22;5090780;28;20476;-29
2022/11/21 04:59:28;;;;;;;13.60;2.83;;;;;;;14.15;91.76;98683.91;5090787;28;20495;-31
2022/11/21 05:01:53;;;;;;;15.65;5.20;;;;;;;14.05;92.26;98677.50;5090549;28;20028;-31
2022/11/21 05:04:19;;;;;;;14.43;6.50;;;;;;;14.11;91.38;98689.00;5090586;28;20115;-29
2022/11/21 05:06:44;;;;;;;11.52;5.65;;;;;;;14.10;91.73;98689.28;5090381;28;20085;-29
2022/11/21 05:09:10;;;;;;;11.65;4.43;;;;;;;13.79;93.72;98695.59;5090500;28;20388;-33
2022/11/21 05:14:19;;;;;;;12.60;5.00;;;;;;;13.97;93.60;98691.47;5090765;28;20115;-28
2022/11/21 05:16:45;;;;;;;10.80;5.43;;;;;;;13.69;95.57;98692.13;5090247;28;20111;-28
2022/11/21 05:19:10;;;;;;;11.73;8.02;;;;;;;13.96;94.45;98708.63;5090640;28;20395;-28
2022/11/21 05:21:36;;;;;;;10.30;4.43;;;;;;;13.92;94.07;98715.63;5090158;28;20480;-28
2022/11/21 05:24:01;;;;;;;8.50;3.38;;;;;;;13.89;91.98;98677.84;5090491;28;20035;-29
2022/11/21 05:26:26;;;;;;;11.82;3.47;;;;;;;13.91;92.51;98700.59;5072826;28;20093;-28
2022/11/21 05:28:52;;;;;;;12.07;3.30;;;;;;;13.75;93.69;98685.66;5091369;28;20058;-27
2022/11/21 05:31:17;;;;;;;13.73;3.05;;;;;;;13.97;93.59;98694.16;5091346;28;20797;-30
2022/11/21 05:33:42;;;;;;;10.07;3.45;;;;;;;14.14;93.94;98698.38;5090562;28;20032;-28
2022/11/21 05:36:08;;;;;;;10.75;2.75;;;;;;;13.99;94.35;98670.56;5091280;28;20472;-29
2022/11/21 05:38:33;;;;;;;7.95;2.67;;;;;;;14.09;94.81;98693.03;5072851;28;20032;-29
2022/11/21 05:40:59;;;;;;;13.77;3.30;;;;;;;14.14;94.44;98703.72;5091055;28;20042;-28
2022/11/21 05:46:08;;;;;;;11.10;2.67;;;;;;;14.07;94.03;98704.81;5090808;28;20798;-30
2022/11/21 05:48:35;;;;;;;11.63;3.10;;;;;;;14.04;94.05;98694.66;5090457;28;20499;-30
2022/11/21 05:51:01;;;;;;;13.75;3.65;;;;;;;14.07;95.14;98698.66;5072478;28;20032;-33
2022/11/21 05:53:27;;;;;;;10.57;3.13;;;;;;;14.19;94.69;98701.03;5090574;28;20020;-28
2022/11/21 05:55:52;;;;;;;13.23;3.78;;;;;;;14.13;95.40;98707.50;5090496;28;20029;-30
2022/11/21 05:58:18;;;;;;;12.95;3.65;;;;;;;13.88;94.44;98711.88;5090652;28;20030;-31
2022/11/21 06:00:43;;;;;;;10.40;3.30;;;;;;;13.82;95.48;98696.91;5090451;28;20385;-27
2022/11/21 06:03:29;;;;;;;13.55;3.30;;;;;;;14.11;95.61;98694.38;5089537;28;20465;-30
2022/11/21 06:06:12;;;;;;;11.77;3.58;;;;;;;14.14;96.43;98711.78;5090388;28;20063;-28
2022/11/21 06:08:45;;;;;;;11.15;3.50;;;;;;;14.24;93.97;98725.94;5072108;28;20036;-28
2022/11/21 06:11:13;;;;;;;10.38;3.22;;;;;;;14.44;93.31;98703.59;5090633;28;20099;-28
2022/11/21 06:13:39;;;;;;;11.80;3.88;;;;;;;14.45;94.20;98715.91;5090255;28;20024;-28
2022/11/21 06:16:15;;;;;;;11.63;3.60;;;;;;;14.57;94.22;98734.38;5071867;28;20496;-32
2022/11/21 06:18:42;;;;;;;9.18;3.33;;;;;;;14.66;94.13;98723.88;5071765;28;20173;-30
2022/11/21 06:21:20;;;;;;;12.13;3.42;;;;;;;14.71;94.99;98720.34;5071897;28;20024;-28
2022/11/21 06:23:46;;;;;;;11.07;3.22;;;;;;;14.98;90.41;98701.91;5089617;28;20036;-30
2022/11/21 06:26:17;;;;;;;10.68;1.95;;;;;;;15.52;74.98;98718.06;5089716;28;20028;-29
2022/11/21 06:28:43;;;;;;;10.35;2.50;;;;;;;15.77;80.05;98733.97;5089802;28;20046;-35
2022/11/21 06:31:21;;;;;;;9.70;2.50;;;;;;;15.95;78.47;98729.69;5071673;28;20704;-27
2022/11/21 06:33:50;;;;;;;11.73;2.72;;;;;;;16.17;78.64;98734.56;5071244;28;20028;-30
2022/11/21 06:36:16;;;;;;;12.63;2.78;;;;;;;16.22;79.02;98731.81;5071197;28;20029;-28
2022/11/21 06:38:43;;;;;;;9.18;2.30;;;;;;;15.96;83.48;98742.06;5071632;28;20034;-32
2022/11/21 06:41:11;;;;;;;14.95;3.30;;;;;;;16.14;79.75;98747.75;5089349;28;20054;-28
2022/11/21 06:43:37;;;;;;;16.20;4.40;;;;;;;16.17;80.35;98736.44;5071240;28;20036;-28
2022/11/21 06:46:03;;;;;;;12.75;3.42;;;;;;;16.47;79.85;98744.13;5070909;28;20038;-29
2022/11/21 06:48:32;;;;;;;13.75;3.90;;;;;;;16.74;76.67;98750.75;5089528;28;20131;-36
2022/11/21 06:51:06;;;;;;;16.92;4.03;;;;;;;16.68;77.54;98741.13;5071009;28;20040;-29
2022/11/21 06:53:33;;;;;;;15.15;3.97;;;;;;;16.61;77.70;98729.94;5089369;28;20024;-27
2022/11/21 06:56:00;;;;;;;15.88;4.45;;;;;;;16.50;78.42;98739.25;5089122;28;20510;-28
2022/11/21 06:58:26;;;;;;;17.23;2.95;;;;;;;16.87;72.27;98770.78;5071204;28;20506;-34
2022/11/21 07:00:51;;;;;;;7.85;1.85;;;;;;;17.18;65.32;98754.97;5070983;28;20024;-30
2022/11/21 07:03:17;;;;;;;6.68;1.52;;;;;;;17.50;65.02;98766.81;5089116;28;20031;-30
2022/11/21 07:05:42;;;;;;;9.32;1.98;;;;;;;17.50;67.37;98753.31;5070710;28;20460;-30
2022/11/21 07:08:08;;;;;;;9.30;2.55;;;;;;;17.56;70.92;98754.84;5089166;28;20028;-29
2022/11/21 07:10:33;;;;;;;12.43;2.72;;;;;;;17.43;72.82;98744.84;5089035;28;20498;-29
2022/11/21 07:15:44;;;;;;;19.10;8.00;;;;;;;17.20;64.39;98762.72;5088335;28;20038;-38
2022/11/21 07:18:10;;;;;;;9.63;2.90;;;;;;;17.14;65.46;98764.72;5070767;28;20024;-27
2022/11/21 07:20:35;;;;;;;8.35;2.60;;;;;;;17.19;66.34;98759.22;5089010;28;20050;-31
2022/11/21 07:23:01;;;;;;;7.82;2.17;;;;;;;17.35;64.21;98749.00;5089109;28;20050;-31
2022/11/21 07:25:26;;;;;;;15.48;4.75;;;;;;;17.20;69.09;98735.78;5088728;28;20028;-30
2022/11/21 07:27:52;;;;;;;15.77;5.65;;;;;;;17.07;71.15;98772.38;5088435;28;20024;-29
2022/11/21 07:30:17;;;;;;;10.88;4.00;;;;;;;16.87;70.33;98766.19;5088106;28;20404;-29
2022/11/21 07:32:43;;;;;;;6.15;1.98;;;;;;;16.94;66.54;98759.63;5088302;28;20066;-27
2022/11/21 07:35:09;;;;;;;8.60;2.88;;;;;;;16.99;66.97;98767.63;5088699;28;20035;-31
2022/11/21 07:37:38;;;;;;;11.77;3.08;;;;;;;16.91;70.74;98752.16;5088368;28;20024;-28
2022/11/21 07:40:05;;;;;;;10.18;3.97;;;;;;;16.83;73.27;98769.75;5062919;28;20124;-28
2022/11/21 07:42:34;;;;;;;14.05;4.97;;;;;;;17.02;69.02;98773.25;5050115;28;20123;-29
2022/11/21 07:44:59;;;;;;;11.73;3.45;;;;;;;17.04;67.20;98778.31;5067875;28;20113;-28
2022/11/21 07:47:25;;;;;;;8.18;1.88;;;;;;;16.92;63.67;98759.13;5049010;28;20116;-31
2022/11/21 07:49:50;;;;;;;7.70;2.08;;;;;;;17.04;66.08;98781.84;5066476;28;20420;-28
2022/11/21 07:52:15;;;;;;;6.50;2.03;;;;;;;17.28;63.83;98772.81;5066898;28;20033;-27
2022/11/21 07:54:42;;;;;;;8.48;1.40;;;;;;;17.25;67.64;98776.91;5066875;28;20049;-27
2022/11/21 07:57:08;;;;;;;6.30;1.15;;;;;;;17.36;65.99;98760.59;5066995;28;20029;-28
2022/11/21 07:59:33;;;;;;;7.22;1.08;;;;;;;17.39;67.38;98760.78;5066597;28;20036;-29
2022/11/21 08:01:59;;;;;;;3.58;1.38;;;;;;;17.43;66.65;98761.00;5066559;28;20036;-31
2022/11/21 08:04:24;;;;;;;4.63;0.93;;;;;;;17.64;65.59;98764.13;5066720;28;20032;-34
2022/11/21 08:06:50;;;;;;;4.35;1.15;;;;;;;17.68;65.89;98765.16;5048468;28;20071;-28
2022/11/21 08:09:15;;;;;;;7.40;1.40;;;;;;;17.81;67.59;98763.56;5066883;28;20040;-27
2022/11/21 08:11:41;;;;;;;7.15;2.20;;;;;;;17.81;67.21;98767.03;5066467;28;20025;-29
2022/11/21 08:14:06;;;;;;;6.30;1.05;;;;;;;17.82;66.12;98752.47;5066899;28;20079;-30
2022/11/21 08:16:32;;;;;;;7.47;1.48;;;;;;;18.01;67.16;98768.59;5048579;28;20499;-31
2022/11/21 08:18:58;;;;;;;9.13;1.73;;;;;;;17.97;64.48;98748.72;5066668;28;20032;-31
2022/11/21 08:21:25;;;;;;;7.60;2.08;;;;;;;17.91;67.17;98754.50;5048544;28;20655;-27
2022/11/21 08:23:50;;;;;;;6.57;1.30;;;;;;;18.05;65.00;98777.69;5066415;28;20183;-32
2022/11/21 08:26:16;;;;;;;3.22;0.98;;;;;;;18.12;62.95;98776.47;5066014;28;20445;-28
2022/11/21 08:28:42;;;;;;;8.07;1.02;;;;;;;17.90;62.33;98783.38;5047963;28;20029;-27
2022/11/21 08:31:07;;;;;;;8.68;1.60;;;;;;;17.93;63.45;98790.88;5066664;28;20396;-30
2022/11/21 08:33:33;;;;;;;8.60;1.27;;;;;;;17.90;62.97;98794.16;5048254;28;20413;-27
2022/11/21 08:36:02;;;;;;;6.53;1.33;;;;;;;17.85;64.77;98786.16;5048170;28;20021;-28
2022/11/21 08:38:28;;;;;;;8.77;1.55;;;;;;;17.95;65.89;98793.28;5066252;28;20124;-28
2022/11/21 08:42:01;;;;;;;5.65;1.83;;;;;;;17.76;69.28;98787.94;5066397;28;20107;-29
2022/11/21 08:43:39;;;;;;;7.75;1.80;;;;;;;17.68;71.53;98784.81;5066176;28;20112;-28
2022/11/21 08:46:04;;;;;;;7.53;1.88;;;;;;;17.53;70.38;98782.41;5048172;28;20494;-34
2022/11/21 08:48:29;;;;;;;9.20;2.47;;;;;;;17.29;72.08;98779.84;5066222;28;20044;-28
2022/11/21 08:50:58;;;;;;;12.38;1.88;;;;;;;17.48;71.19;98795.94;5048127;28;20040;-30
2022/11/21 08:53:24;;;;;;;8.57;1.92;;;;;;;17.51;69.69;98806.16;5066036;28;20020;-28
2022/11/21 08:55:49;;;;;;;10.43;2.03;;;;;;;17.43;70.34;98813.00;5065852;28;20044;-30
2022/11/21 08:58:15;;;;;;;9.25;1.73;;;;;;;17.42;71.00;98813.28;5066452;28;20036;-28
2022/11/21 09:00:40;;;;;;;8.95;2.13;;;;;;;17.33;71.38;98810.47;5066299;28;20793;-34
2022/11/21 09:03:05;;;;;;;11.20;1.67;;;;;;;17.40;72.24;98820.88;5066268;28;20028;-29
2022/11/21 09:05:32;;;;;;;8.05;2.38;;;;;;;17.44;74.00;98824.59;5066235;28;20028;-28
2022/11/21 09:07:57;;;;;;;7.70;2.90;;;;;;;17.53;74.42;98830.91;5047801;28;20415;-30
2022/11/21 09:10:25;;;;;;;7.07;2.08;;;;;;;17.61;72.71;98834.81;5047248;28;20119;-30
2022/11/21 09:12:50;;;;;;;7.13;1.70;;;;;;;17.52;74.49;98829.31;5048121;28;20039;-28
2022/11/21 09:18:03;;;;;;;10.00;2.28;;;;;;;17.75;74.55;98811.38;5065965;28;20039;-29
2022/11/21 09:20:36;;;;;;;9.98;2.30;;;;;;;17.67;70.09;98812.88;5047794;28;20412;-29
2022/11/21 09:23:07;;;;;;;22.55;3.35;;;;;;;17.77;73.76;98800.31;5047653;28;20037;-30
2022/11/21 09:25:33;;;;;;;8.57;2.25;;;;;;;17.83;74.20;98812.63;5047839;28;20020;-30
2022/11/21 09:28:00;;;;;;;9.40;2.50;;;;;;;17.79;74.76;98812.38;5065799;28;20131;-29
2022/11/21 09:30:26;;;;;;;8.00;2.15;;;;;;;17.93;75.21;98817.84;5047683;28;20059;-30
2022/11/21 09:32:51;;;;;;;10.77;2.65;;;;;;;17.85;76.74;98810.44;5065880;28;20444;-30
2022/11/21 09:35:17;;;;;;;8.57;2.40;;;;;;;18.07;74.41;98807.84;5065716;28;20420;-30
2022/11/21 09:37:43;;;;;;;9.63;3.10;;;;;;;18.00;75.43;98806.66;5065582;28;20126;-27
2022/11/21 09:40:18;;;;;;;9.20;2.70;;;;;;;18.35;73.95;98813.25;5051379;28;20085;-30
2022/11/21 09:43:04;;;;;;;10.18;1.90;;;;;;;18.59;72.55;98813.03;5051139;28;20039;-28
2022/11/21 09:45:41;;;;;;;6.80;2.20;;;;;;;18.56;73.46;98810.94;5069265;28;20036;-30
2022/11/21 09:48:28;;;;;;;7.75;2.38;;;;;;;18.77;71.95;98808.59;5051074;28;20563;-32
2022/11/21 09:51:00;;;;;;;8.43;1.67;;;;;;;18.81;72.33;98806.13;5069115;28;20028;-29
2022/11/21 09:54:04;;;;;;;7.28;2.25;;;;;;;18.78;74.60;98802.09;5069369;28;20098;-33
2022/11/21 09:56:34;;;;;;;9.23;2.45;;;;;;;18.72;75.18;98803.31;5010884;28;20230;-28
2022/11/21 09:59:06;;;;;;;7.70;2.10;;;;;;;18.84;72.49;98797.41;5051110;28;20557;-27
2022/11/21 10:01:32;;;;;;;8.48;1.90;;;;;;;18.78;74.48;98783.19;5051239;28;20029;-34
2022/11/21 10:04:01;;;;;;;9.80;2.65;;;;;;;19.05;74.74;98798.53;5069089;28;20040;-29
2022/11/21 10:06:30;;;;;;;8.13;2.80;;;;;;;18.92;73.05;98793.19;5050741;28;20036;-33
2022/11/21 10:09:02;;;;;;;9.70;2.92;;;;;;;18.87;74.03;98765.19;5069038;28;20078;-30
2022/11/21 10:14:52;;;;;;;7.80;2.88;;;;;;;19.35;74.16;98792.69;5069095;28;20102;-29
2022/11/21 10:17:36;;;;;;;10.15;3.92;;;;;;;19.63;70.29;98791.44;5050890;28;20060;-30
2022/11/21 10:20:19;;;;;;;9.55;3.40;;;;;;;19.70;69.70;98779.41;5069022;28;20059;-31
2022/11/21 10:23:25;;;;;;;7.75;2.33;;;;;;;19.84;66.52;98785.56;5068687;28;20031;-28
2022/11/21 10:25:55;;;;;;;4.97;2.00;;;;;;;19.77;66.06;98774.38;5057621;28;20039;-30
2022/11/21 10:28:39;;;;;;;11.00;3.05;;;;;;;19.90;66.55;98789.72;5068599;28;20255;-28
2022/11/21 10:31:10;;;;;;;6.35;2.45;;;;;;;20.00;66.60;98789.44;5050408;28;20067;-28
2022/11/21 10:33:39;;;;;;;8.73;2.42;;;;;;;20.16;66.75;98786.28;5050111;28;20042;-29
2022/11/21 10:36:29;;;;;;;7.95;2.58;;;;;;;20.19;67.29;98793.81;5068329;28;20031;-34
2022/11/21 10:38:59;;;;;;;8.00;2.47;;;;;;;20.31;64.47;98780.47;5068201;28;20036;-29
2022/11/21 10:41:57;;;;;;;6.00;1.60;;;;;;;20.42;60.25;98787.16;5050076;28;20891;-30
2022/11/21 10:47:14;;;;;;;;;;;;;;;20.50;61.31;98798.34;5068733;28;20040;-28
2022/11/21 10:49:42;;;;;;;9.15;3.47;;;;;;;20.43;60.25;98794.19;5066977;28;19975;-30
2022/11/21 10:52:18;;;;;;;8.35;2.50;;;;;;;20.48;59.65;98779.69;5049938;28;20035;-30
2022/11/21 10:55:01;;;;;;;6.57;2.38;;;;;;;20.64;57.52;98801.75;5049843;28;20043;-29
2022/11/21 10:57:30;;;;;;;5.45;1.90;;;;;;;20.46;59.44;98780.00;5067819;28;20476;-28
2022/11/21 10:59:55;;;;;;;6.30;1.67;;;;;;;20.70;56.91;98805.06;5049396;28;20040;-30
2022/11/21 11:02:24;;;;;;;4.20;1.45;;;;;;;20.57;57.00;98795.94;5067765;28;20032;-29
2022/11/21 11:05:15;;;;;;;7.50;1.60;;;;;;;20.54;59.16;98788.47;5032851;28;20036;-28
2022/11/21 11:07:40;;;;;;;7.82;1.50;;;;;;;20.36;56.57;98765.97;5068016;28;20070;-36
2022/11/21 11:10:22;;;;;;;5.80;1.40;;;;;;;20.59;57.57;98793.75;5049477;28;20546;-31
2022/11/21 11:15:36;;;;;;;8.00;1.45;;;;;;;20.36;52.64;98796.56;5067563;28;20064;-32
2022/11/21 11:18:03;;;;;;;3.35;1.48;;;;;;;20.19;54.27;98791.88;5049325;28;20033;-30
2022/11/21 11:20:40;;;;;;;6.75;1.45;;;;;;;20.31;54.28;98787.78;5067337;28;20044;-32
2022/11/21 11:23:35;;;;;;;9.20;1.50;;;;;;;20.29;54.22;98785.41;5049635;28;20117;-29
2022/11/21 11:26:01;;;;;;;7.45;1.50;;;;;;;20.20;54.29;98785.34;5049653;28;20075;-29
2022/11/21 11:28:34;;;;;;;4.38;1.35;;;;;;;20.29;54.03;98788.09;5067817;28;20055;-29
2022/11/21 11:31:00;;;;;;;4.53;1.10;;;;;;;20.30;52.30;98792.41;5049384;28;20039;-33
2022/11/21 11:33:34;;;;;;;3.85;1.10;;;;;;;20.31;54.35;98785.88;5067195;28;20032;-29
2022/11/21 11:36:15;;;;;;;8.10;1.40;;;;;;;20.23;56.50;98790.16;5048932;28;20728;-29
2022/11/21 11:38:47;;;;;;;7.00;1.73;;;;;;;19.96;56.89;98771.41;5067025;28;20029;-29
2022/11/21 11:47:29;;;;;;;5.47;1.08;;;;;;;20.05;53.50;98788.50;5049055;28;20056;-30
2022/11/21 11:47:29;;;;;;;4.93;1.40;;;;;;;19.90;56.52;98761.84;5067215;28;20035;-31
2022/11/21 11:50:11;;;;;;;2.17;1.00;;;;;;;19.60;55.97;98770.44;5066317;28;20056;-28
2022/11/21 11:53:23;;;;;;;6.78;1.20;;;;;;;19.59;56.57;98795.09;5067116;28;20036;-30
2022/11/21 11:56:01;;;;;;;3.95;1.15;;;;;;;19.47;60.35;98788.34;5044376;28;20045;-30
2022/11/21 11:58:37;;;;;;;;;;;;;;;19.61;58.45;98776.63;5067512;28;20020;-27
2022/11/21 12:01:05;;;;;;;3.55;1.13;;;;;;;19.61;58.30;98782.06;5048602;28;19999;-30
2022/11/21 12:03:47;;;;;;;4.00;1.00;;;;;;;19.64;57.38;98776.03;5066879;28;20032;-30